Terminal Aerodrome Forecast
Issued by NWS Corpus Christi, TX

Current Version | Previous Version | Text Only | Print | Product List | Glossary Off
Versions: 1 2 3 4 5 6 7 8 9 10 11 12

925
FTUS44 KCRP 062327
TAFVCT
TAF
KVCT 062327Z 0700/0724 12008KT P6SM FEW025 SCT250
     FM070900 11005KT P6SM SCT025
     FM071600 15015G20KT P6SM SCT050=

USA.gov is the U.S. government's official web portal to all federal, state and local government web resources and services.